createdAt,value
2019-04-07T00:14:00.388Z,19.32
2019-04-07T00:44:02.997Z,19.50
2019-04-07T01:14:08.287Z,19.75
2019-04-07T01:44:11.294Z,20.75
2019-04-07T02:14:13.905Z,20.65
2019-04-07T02:44:16.557Z,21.15
2019-04-07T03:14:19.735Z,21.45
2019-04-07T03:44:22.588Z,21.00
2019-04-07T04:14:29.350Z,22.42
2019-04-07T04:44:32.186Z,25.00
2019-04-07T05:14:34.796Z,29.82
2019-04-07T05:44:37.472Z,24.00
2019-04-07T06:14:43.839Z,26.12
2019-04-07T06:44:50.338Z,23.45
2019-04-07T07:14:51.732Z,24.55
2019-04-07T07:44:54.381Z,25.37
2019-04-07T08:14:58.325Z,25.27
2019-04-07T08:45:01.602Z,27.40
2019-04-07T09:15:05.275Z,26.40
2019-04-07T09:45:09.883Z,23.47
2019-04-07T10:15:12.968Z,22.45
2019-04-07T10:45:16.159Z,24.40
2019-04-07T11:15:22.367Z,24.47
2019-04-07T11:45:25.401Z,24.37
2019-04-07T12:15:29.986Z,23.75
2019-04-07T12:45:34.748Z,22.58
2019-04-07T13:15:42.062Z,21.33
2019-04-07T13:45:46.362Z,19.87
2019-04-07T14:15:48.514Z,21.00
2019-04-07T14:45:51.552Z,18.23
2019-04-07T15:15:54.269Z,17.25
2019-04-07T15:45:56.919Z,17.45
2019-04-07T16:15:59.675Z,17.00
2019-04-07T16:46:02.273Z,16.50
2019-04-07T17:16:05.810Z,16.15
2019-04-07T17:46:08.505Z,15.08
2019-04-07T18:16:12.244Z,25.45
2019-04-07T18:46:16.842Z,23.65
2019-04-07T19:16:21.720Z,26.62
2019-04-07T19:46:26.439Z,30.75
2019-04-07T20:16:28.340Z,32.28
2019-04-07T20:46:39.915Z,32.78
2019-04-07T21:16:43.237Z,34.33
2019-04-07T21:46:46.424Z,37.90
2019-04-07T22:16:49.365Z,39.10
2019-04-07T22:46:52.328Z,40.65
2019-04-07T23:16:55.111Z,41.65
2019-04-07T23:46:57.732Z,40.23
